Alto, Georgia
Current Conditions -  °F | °C
As of 6:35 PM on Monday 20 Oct 2014 (Local Time) from KTOC Reporting Station
Clear Clear  
Wind Chill: 66°   Ceiling: Unl
Heat Index: 66°   Visibility: 10mi
Dew Point: 51°   Wind: 6mph
Humidity: 59%   Direction: 230°SW
Pressure: 29.99"   Gusts: NA
Location:  34.47°N, 83.57°W
Report Text: KTOC 202235Z AUTO 23005KT 10SM CLR 19/11 A2999 RMK AO2 T01900107
Loading
Personal Weather Stations






























Interactive Weather Map
Tropical Storm Tracking
New forecast layout! Learn more

10-Day Weather Forecast

Advertisements
Track Severe Weather on mobile